Terminal Aerodrome Forecast
Issued by NWS

Home | Current Version | Previous Version | Text Only | Print | Product List | Glossary On
Versions: 1 2 3 4 5 6 7 8 9 10 11 12 13 14 15 16 17 18 19 20 21 22 23 24 25 26 27 28
000
FTUS46 KSEW 201128
TAFHQM
TAF
KHQM 201128Z 2012/2112 17010KT P6SM VCSH SCT035 BKN050 OVC090
     FM201500 10008KT P6SM VCSH SCT035 OVC050
     FM202100 10012KT P6SM -RA SCT025 OVC040
     FM210200 10015G25KT P6SM -RA SCT025 OVC035
     FM210800 12015G25KT P6SM -RA SCT025 OVC035 WS020/19055KT=

USA.gov is the U.S. government's official web portal to all federal, state and local government web resources and services.